createdAt,value
2023-04-28T00:02:04.019Z,15.60
2023-04-28T00:04:33.213Z,15.10
2023-04-28T00:07:01.188Z,15.00
2023-04-28T00:09:28.862Z,14.90
2023-04-28T00:11:56.651Z,15.00
2023-04-28T00:14:24.364Z,15.00
2023-04-28T00:16:52.155Z,15.00
2023-04-28T00:19:20.329Z,14.90
2023-04-28T00:21:49.417Z,15.00
2023-04-28T00:24:17.268Z,15.10
2023-04-28T00:26:45.219Z,14.90
2023-04-28T00:29:12.998Z,15.20
2023-04-28T00:31:40.734Z,15.10
2023-04-28T00:34:08.437Z,15.00
2023-04-28T00:36:36.209Z,15.00
2023-04-28T00:39:05.400Z,14.90
2023-04-28T00:41:35.387Z,15.00
2023-04-28T00:44:03.150Z,15.10
2023-04-28T00:46:32.882Z,15.10
2023-04-28T00:49:01.053Z,15.00
2023-04-28T00:51:29.345Z,14.90
2023-04-28T00:53:57.982Z,15.00
2023-04-28T00:56:27.744Z,15.00
2023-04-28T00:58:55.695Z,14.90
2023-04-28T01:01:23.579Z,14.90
2023-04-28T01:03:52.790Z,14.70
2023-04-28T01:06:21.300Z,14.50
2023-04-28T01:08:50.018Z,14.50
2023-04-28T01:11:17.993Z,14.50
2023-04-28T01:13:47.111Z,14.40
2023-04-28T01:16:14.970Z,14.40
2023-04-28T01:18:47.839Z,14.20
2023-04-28T01:21:15.634Z,14.50
2023-04-28T01:23:47.613Z,14.40
2023-04-28T01:26:15.400Z,14.40
2023-04-28T01:28:43.239Z,14.30
2023-04-28T01:31:11.095Z,14.40
2023-04-28T01:33:38.898Z,14.50
2023-04-28T01:36:07.443Z,14.70
2023-04-28T01:38:35.337Z,14.80
2023-04-28T01:41:04.606Z,14.70
2023-04-28T01:43:32.300Z,14.90
2023-04-28T01:46:00.084Z,15.10
2023-04-28T01:48:27.839Z,14.90
2023-04-28T01:50:55.815Z,15.10
2023-04-28T01:53:23.507Z,15.20
2023-04-28T01:55:51.484Z,14.60
2023-04-28T01:58:20.739Z,14.90
2023-04-28T02:00:48.842Z,14.80
2023-04-28T02:03:16.839Z,14.30
2023-04-28T02:05:44.802Z,14.60
2023-04-28T02:08:12.533Z,14.40
2023-04-28T02:10:40.248Z,14.50
2023-04-28T02:13:08.126Z,14.40
2023-04-28T02:15:40.902Z,14.20
2023-04-28T02:18:08.808Z,14.10
2023-04-28T02:20:36.630Z,14.40
2023-04-28T02:23:04.370Z,14.20
2023-04-28T02:25:32.136Z,14.20
2023-04-28T02:28:00.218Z,14.10
2023-04-28T02:30:28.024Z,14.10
2023-04-28T02:32:57.085Z,14.10
2023-04-28T02:35:24.979Z,14.10
2023-04-28T02:37:52.763Z,13.90
2023-04-28T02:40:21.805Z,13.90
2023-04-28T02:42:49.490Z,14.00
2023-04-28T02:45:17.394Z,14.20
2023-04-28T02:47:45.116Z,13.90
2023-04-28T02:50:14.214Z,13.90
2023-04-28T02:52:41.950Z,14.00
2023-04-28T02:55:10.196Z,14.00
2023-04-28T02:57:37.938Z,14.10
2023-04-28T03:00:06.957Z,14.30
2023-04-28T03:02:34.741Z,14.10
2023-04-28T03:05:02.629Z,13.90
2023-04-28T03:07:31.772Z,14.20
2023-04-28T03:09:59.513Z,14.10
2023-04-28T03:12:27.236Z,14.20
2023-04-28T03:14:54.996Z,14.20
2023-04-28T03:17:22.827Z,14.10
2023-04-28T03:19:50.600Z,13.90
2023-04-28T03:22:18.336Z,13.90
2023-04-28T03:24:47.467Z,13.70
2023-04-28T03:27:15.354Z,13.60
2023-04-28T03:29:43.127Z,13.60
2023-04-28T03:32:11.041Z,13.70
2023-04-28T03:34:39.012Z,13.60
2023-04-28T03:37:07.162Z,13.90
2023-04-28T03:39:34.968Z,13.50
2023-04-28T03:42:04.236Z,13.60
2023-04-28T03:44:32.015Z,13.60
2023-04-28T03:46:59.779Z,13.40
2023-04-28T03:49:27.539Z,13.40
2023-04-28T03:51:55.252Z,13.50
2023-04-28T03:54:22.986Z,13.30
2023-04-28T03:56:50.981Z,13.50
2023-04-28T03:59:20.060Z,13.50
2023-04-28T04:01:47.829Z,13.60
2023-04-28T04:04:16.040Z,13.30
2023-04-28T04:06:44.129Z,13.40
2023-04-28T04:09:11.848Z,13.60
2023-04-28T04:11:39.626Z,13.50
2023-04-28T04:14:07.337Z,13.40
2023-04-28T04:16:37.160Z,13.60
2023-04-28T04:19:04.963Z,13.50
2023-04-28T04:21:32.964Z,13.20
2023-04-28T04:24:01.288Z,13.30
2023-04-28T04:26:29.193Z,13.40
2023-04-28T04:28:56.987Z,13.30
2023-04-28T04:31:24.815Z,13.20
2023-04-28T04:33:53.943Z,13.10
2023-04-28T04:36:21.670Z,12.90
2023-04-28T04:38:49.490Z,13.40
2023-04-28T04:41:17.376Z,13.20
2023-04-28T04:43:45.107Z,13.30
2023-04-28T04:46:12.962Z,13.40
2023-04-28T04:48:40.860Z,13.10
2023-04-28T04:51:09.919Z,13.50
2023-04-28T04:53:37.768Z,13.30
2023-04-28T04:56:06.624Z,13.40
2023-04-28T04:58:34.493Z,13.20
2023-04-28T05:01:02.383Z,13.40
2023-04-28T05:03:30.256Z,13.00
2023-04-28T05:05:58.200Z,13.20
2023-04-28T05:08:27.673Z,13.20
2023-04-28T05:10:55.512Z,12.70
2023-04-28T05:13:23.316Z,12.80
2023-04-28T05:15:51.667Z,12.90
2023-04-28T05:18:19.479Z,13.10
2023-04-28T05:20:47.249Z,12.80
2023-04-28T05:23:15.029Z,12.70
2023-04-28T05:25:44.116Z,12.90
2023-04-28T05:28:12.080Z,12.80
2023-04-28T05:30:39.885Z,12.50
2023-04-28T05:33:07.702Z,12.60
2023-04-28T05:35:35.909Z,12.60
2023-04-28T05:38:03.873Z,12.40
2023-04-28T05:40:31.634Z,12.80
2023-04-28T05:43:01.046Z,12.70
2023-04-28T05:45:29.023Z,12.50
2023-04-28T05:47:56.862Z,12.70
2023-04-28T05:50:24.631Z,12.60
2023-04-28T05:52:52.335Z,12.60
2023-04-28T05:55:20.233Z,12.80
2023-04-28T05:57:53.044Z,12.80
2023-04-28T06:00:22.959Z,12.80
2023-04-28T06:02:51.029Z,12.50
2023-04-28T06:05:19.291Z,12.40
2023-04-28T06:07:49.708Z,12.80
2023-04-28T06:10:18.131Z,12.50
2023-04-28T06:12:45.962Z,12.40
2023-04-28T06:15:13.734Z,12.40
2023-04-28T06:17:43.341Z,12.60
2023-04-28T06:20:13.663Z,12.70
2023-04-28T06:22:41.614Z,12.60
2023-04-28T06:25:10.278Z,12.70
2023-04-28T06:27:38.325Z,12.70
2023-04-28T06:30:07.333Z,12.70
2023-04-28T06:32:35.086Z,12.50
2023-04-28T06:35:04.378Z,12.40
2023-04-28T06:37:32.315Z,12.40
2023-04-28T06:39:59.996Z,12.30
2023-04-28T06:42:28.368Z,12.60
2023-04-28T06:44:56.199Z,12.60
2023-04-28T06:47:24.042Z,12.40
2023-04-28T06:49:52.245Z,12.40
2023-04-28T06:52:24.887Z,12.30
2023-04-28T06:54:57.887Z,12.60
2023-04-28T06:57:25.764Z,12.50
2023-04-28T06:59:53.599Z,12.50
2023-04-28T07:02:21.597Z,12.40
2023-04-28T07:04:49.368Z,12.10
2023-04-28T07:07:17.057Z,12.60
2023-04-28T07:09:46.262Z,12.40
2023-04-28T07:12:14.229Z,12.60
2023-04-28T07:14:41.952Z,12.40
2023-04-28T07:17:09.836Z,12.40
2023-04-28T07:19:37.679Z,12.70
2023-04-28T07:22:05.478Z,12.40
2023-04-28T07:24:33.271Z,12.40
2023-04-28T07:27:04.173Z,12.80
2023-04-28T07:29:34.055Z,12.90
2023-04-28T07:32:02.151Z,12.70
2023-04-28T07:34:29.972Z,12.10
2023-04-28T07:36:58.135Z,12.80
2023-04-28T07:39:26.113Z,13.10
2023-04-28T07:41:53.961Z,12.90
2023-04-28T07:44:23.504Z,13.30
2023-04-28T07:46:52.358Z,13.00
2023-04-28T07:49:20.479Z,12.90
2023-04-28T07:51:48.280Z,13.20
2023-04-28T07:54:16.524Z,13.20
2023-04-28T07:56:44.379Z,12.90
2023-04-28T07:59:12.218Z,13.00
2023-04-28T08:01:43.457Z,13.40
2023-04-28T08:04:13.433Z,13.10
2023-04-28T08:06:43.851Z,13.10
2023-04-28T08:09:13.715Z,13.20
2023-04-28T08:11:43.316Z,13.20
2023-04-28T08:14:13.415Z,12.90
2023-04-28T08:16:44.604Z,13.10
2023-04-28T08:19:14.218Z,13.10
2023-04-28T08:21:43.713Z,13.10
2023-04-28T08:24:13.838Z,13.40
2023-04-28T08:26:43.477Z,13.40
2023-04-28T08:29:13.394Z,13.30
2023-04-28T08:31:44.507Z,13.40
2023-04-28T08:34:16.507Z,13.40
2023-04-28T08:36:46.610Z,13.40
2023-04-28T08:39:16.528Z,13.50
2023-04-28T08:41:46.523Z,13.80
2023-04-28T08:44:16.502Z,13.10
2023-04-28T08:46:48.788Z,13.90
2023-04-28T08:49:20.437Z,13.70
2023-04-28T08:51:58.039Z,13.90
2023-04-28T08:54:33.207Z,13.40
2023-04-28T08:57:04.860Z,13.80
2023-04-28T08:59:32.919Z,14.30
2023-04-28T09:02:02.001Z,13.90
2023-04-28T09:04:29.877Z,14.20
2023-04-28T09:06:57.780Z,14.10
2023-04-28T09:09:26.826Z,14.00
2023-04-28T09:11:56.515Z,14.00
2023-04-28T09:14:24.642Z,14.10
2023-04-28T09:16:53.122Z,14.10
2023-04-28T09:19:22.524Z,13.90
2023-04-28T09:21:52.575Z,14.00
2023-04-28T09:24:31.312Z,14.10
2023-04-28T09:26:59.846Z,13.90
2023-04-28T09:29:27.646Z,13.80
2023-04-28T09:31:55.856Z,14.10
2023-04-28T09:34:24.994Z,14.00
2023-04-28T09:36:52.834Z,14.10
2023-04-28T09:39:31.108Z,14.20
2023-04-28T09:42:03.372Z,14.10
2023-04-28T09:44:31.192Z,14.40
2023-04-28T09:46:58.916Z,14.30
2023-04-28T09:49:28.127Z,14.30
2023-04-28T09:51:55.998Z,14.50
2023-04-28T09:54:24.930Z,15.00
2023-04-28T09:56:53.129Z,14.90
2023-04-28T09:59:21.486Z,15.00
2023-04-28T10:01:50.737Z,14.70
2023-04-28T10:04:19.015Z,14.90
2023-04-28T10:06:48.457Z,15.00
2023-04-28T10:09:17.508Z,14.60
2023-04-28T10:11:46.017Z,15.00
2023-04-28T10:14:14.448Z,14.90
2023-04-28T10:16:43.575Z,15.00
2023-04-28T10:19:11.893Z,15.00
2023-04-28T10:21:49.408Z,14.90
2023-04-28T10:24:27.550Z,14.90
2023-04-28T10:27:08.271Z,14.90
2023-04-28T10:29:37.470Z,15.10
2023-04-28T10:32:23.222Z,15.30
2023-04-28T10:34:51.238Z,15.10
2023-04-28T10:37:19.519Z,15.20
2023-04-28T10:40:29.641Z,15.10
2023-04-28T10:42:58.813Z,15.20
2023-04-28T10:46:14.685Z,15.10
2023-04-28T10:49:06.201Z,15.30
2023-04-28T10:51:35.572Z,15.70
2023-04-28T10:54:19.892Z,15.50
2023-04-28T10:57:19.189Z,15.90
2023-04-28T10:59:48.865Z,15.60
2023-04-28T11:02:49.860Z,15.50
2023-04-28T11:05:20.016Z,15.40
2023-04-28T11:08:33.692Z,15.30
2023-04-28T11:11:17.479Z,15.60
2023-04-28T11:13:46.975Z,15.80
2023-04-28T11:16:21.134Z,15.40
2023-04-28T11:19:02.980Z,15.40
2023-04-28T11:21:31.202Z,15.60
2023-04-28T11:23:59.851Z,15.40
2023-04-28T11:26:29.389Z,15.60
2023-04-28T11:28:58.549Z,15.30
2023-04-28T11:31:28.589Z,15.20
2023-04-28T11:34:01.800Z,15.00
2023-04-28T11:36:35.724Z,15.60
2023-04-28T11:39:07.688Z,15.60
2023-04-28T11:41:36.337Z,15.90
2023-04-28T11:44:11.689Z,15.50
2023-04-28T11:46:50.439Z,15.60
2023-04-28T11:49:19.135Z,15.90
2023-04-28T11:51:48.939Z,15.70
2023-04-28T11:54:22.831Z,15.90
2023-04-28T11:56:50.860Z,15.50
2023-04-28T11:59:20.685Z,15.50
2023-04-28T12:01:51.922Z,15.80
2023-04-28T12:04:30.577Z,15.80
2023-04-28T12:07:02.946Z,15.80
2023-04-28T12:09:31.088Z,16.00
2023-04-28T12:12:02.262Z,16.00
2023-04-28T12:14:32.072Z,15.50
2023-04-28T12:17:01.515Z,15.70
2023-04-28T12:19:29.266Z,15.60
2023-04-28T12:22:01.745Z,15.90
2023-04-28T12:24:29.588Z,15.60
2023-04-28T12:27:15.832Z,15.50
2023-04-28T12:29:46.364Z,15.50
2023-04-28T12:32:16.381Z,15.40
2023-04-28T12:34:46.399Z,15.60
2023-04-28T12:37:14.382Z,15.70
2023-04-28T12:39:43.480Z,16.00
2023-04-28T12:42:11.727Z,15.70
2023-04-28T12:44:40.715Z,15.90
2023-04-28T12:47:10.750Z,16.20
2023-04-28T12:49:40.157Z,16.30
2023-04-28T12:52:07.995Z,16.30
2023-04-28T12:54:35.722Z,16.40
2023-04-28T12:57:03.926Z,16.50
2023-04-28T12:59:32.661Z,16.60
2023-04-28T13:02:00.536Z,16.70
2023-04-28T13:04:28.521Z,16.70
2023-04-28T13:06:58.754Z,16.80
2023-04-28T13:09:27.496Z,16.80
2023-04-28T13:11:55.515Z,16.20
2023-04-28T13:14:23.986Z,16.70
2023-04-28T13:16:53.030Z,16.60
2023-04-28T13:19:20.726Z,16.70
2023-04-28T13:21:48.521Z,16.90
2023-04-28T13:24:17.618Z,16.40
2023-04-28T13:26:45.404Z,16.40
2023-04-28T13:29:14.340Z,16.60
2023-04-28T13:31:42.753Z,16.40
2023-04-28T13:34:15.929Z,16.60
2023-04-28T13:36:44.058Z,16.60
2023-04-28T13:39:14.256Z,16.50
2023-04-28T13:41:43.526Z,16.60
2023-04-28T13:44:11.261Z,16.70
2023-04-28T13:46:38.979Z,16.70
2023-04-28T13:49:06.752Z,16.90
2023-04-28T13:51:34.631Z,16.80
2023-04-28T13:54:04.174Z,17.30
2023-04-28T13:56:32.164Z,17.30
2023-04-28T13:59:01.452Z,17.40
2023-04-28T14:01:29.653Z,17.70
2023-04-28T14:03:57.772Z,17.80
2023-04-28T14:06:25.896Z,17.90
2023-04-28T14:08:53.749Z,18.10
2023-04-28T14:11:22.498Z,18.20
2023-04-28T14:13:50.428Z,18.20
2023-04-28T14:16:19.697Z,18.10
2023-04-28T14:18:47.495Z,18.30
2023-04-28T14:21:15.374Z,18.20
2023-04-28T14:23:43.124Z,18.00
2023-04-28T14:26:10.845Z,18.20
2023-04-28T14:28:38.548Z,18.10
2023-04-28T14:31:08.549Z,17.90
2023-04-28T14:33:38.104Z,17.90
2023-04-28T14:36:06.286Z,17.70
2023-04-28T14:38:34.055Z,17.70
2023-04-28T14:41:01.882Z,17.60
2023-04-28T14:43:29.593Z,17.10
2023-04-28T14:45:57.452Z,17.00
2023-04-28T14:48:25.316Z,17.10
2023-04-28T14:50:54.408Z,17.00
2023-04-28T14:53:22.448Z,16.80
2023-04-28T14:55:50.398Z,16.50
2023-04-28T14:58:18.173Z,16.40
2023-04-28T15:00:45.923Z,16.40
2023-04-28T15:03:13.821Z,16.30
2023-04-28T15:05:41.604Z,16.20
2023-04-28T15:08:11.538Z,16.30
2023-04-28T15:10:40.526Z,16.20
2023-04-28T15:13:08.430Z,16.40
2023-04-28T15:15:36.647Z,16.30
2023-04-28T15:18:04.881Z,16.30
2023-04-28T15:20:34.048Z,16.40
2023-04-28T15:23:01.908Z,16.70
2023-04-28T15:25:31.016Z,16.70
2023-04-28T15:27:58.993Z,16.80
2023-04-28T15:30:26.722Z,16.50
2023-04-28T15:32:54.525Z,16.70
2023-04-28T15:35:22.700Z,16.60
2023-04-28T15:37:51.851Z,16.40
2023-04-28T15:40:21.578Z,16.40
2023-04-28T15:42:52.922Z,16.40
2023-04-28T15:45:22.117Z,16.40
2023-04-28T15:47:50.558Z,16.50
2023-04-28T15:50:20.090Z,16.50
2023-04-28T15:52:49.975Z,16.50
2023-04-28T15:55:19.116Z,16.60
2023-04-28T15:57:47.753Z,16.60
2023-04-28T16:00:17.577Z,16.60
2023-04-28T16:02:45.985Z,17.10
2023-04-28T16:05:14.595Z,17.20
2023-04-28T16:07:42.865Z,17.40
2023-04-28T16:10:12.969Z,17.00
2023-04-28T16:12:41.745Z,17.00
2023-04-28T16:15:12.163Z,17.00
2023-04-28T16:17:41.705Z,17.30
2023-04-28T16:20:10.953Z,17.20
2023-04-28T16:22:40.035Z,17.20
2023-04-28T16:25:09.191Z,17.40
2023-04-28T16:27:38.075Z,17.60
2023-04-28T16:30:07.216Z,17.60
2023-04-28T16:32:36.454Z,17.60
2023-04-28T16:35:06.411Z,17.60
2023-04-28T16:37:36.332Z,17.30
2023-04-28T16:40:04.576Z,17.20
2023-04-28T16:42:32.385Z,17.30
2023-04-28T16:45:00.677Z,17.50
2023-04-28T16:47:30.989Z,17.30
2023-04-28T16:49:59.020Z,17.50
2023-04-28T16:52:28.359Z,17.20
2023-04-28T16:54:56.306Z,17.60
2023-04-28T16:57:24.065Z,17.60
2023-04-28T16:59:52.165Z,17.30
2023-04-28T17:02:20.203Z,17.50
2023-04-28T17:04:48.312Z,17.50
2023-04-28T17:07:16.160Z,17.30
2023-04-28T17:09:45.379Z,17.30
2023-04-28T17:12:13.123Z,17.10
2023-04-28T17:14:41.439Z,17.20
2023-04-28T17:17:09.246Z,17.40
2023-04-28T17:19:37.561Z,17.20
2023-04-28T17:22:05.289Z,17.00
2023-04-28T17:24:33.062Z,17.30
2023-04-28T17:27:02.384Z,17.10
2023-04-28T17:29:30.164Z,17.20
2023-04-28T17:31:58.005Z,17.20
2023-04-28T17:34:25.860Z,16.90
2023-04-28T17:36:53.625Z,17.40
2023-04-28T17:39:21.618Z,17.20
2023-04-28T17:41:49.418Z,17.20
2023-04-28T17:44:18.530Z,17.10
2023-04-28T17:46:46.352Z,17.10
2023-04-28T17:49:14.201Z,17.00
2023-04-28T17:51:41.975Z,16.90
2023-04-28T17:54:09.791Z,16.90
2023-04-28T17:56:38.602Z,16.90
2023-04-28T17:59:08.164Z,17.00
2023-04-28T18:01:37.704Z,16.90
2023-04-28T18:04:05.626Z,16.90
2023-04-28T18:06:33.561Z,17.00
2023-04-28T18:09:01.314Z,16.80
2023-04-28T18:11:29.109Z,16.50
2023-04-28T18:13:58.673Z,16.80
2023-04-28T18:16:26.901Z,16.70
2023-04-28T18:18:56.290Z,16.20
2023-04-28T18:21:24.079Z,16.40
2023-04-28T18:23:51.850Z,16.60
2023-04-28T18:26:20.909Z,16.60
2023-04-28T18:28:48.887Z,16.40
2023-04-28T18:31:17.119Z,16.50
2023-04-28T18:33:45.050Z,16.40
2023-04-28T18:36:14.217Z,15.80
2023-04-28T18:38:42.024Z,16.20
2023-04-28T18:41:16.977Z,16.30
2023-04-28T18:43:45.208Z,16.20
2023-04-28T18:46:13.132Z,16.20
2023-04-28T18:48:40.945Z,16.30
2023-04-28T18:51:08.634Z,16.40
2023-04-28T18:53:38.444Z,16.10
2023-04-28T18:56:06.470Z,15.90
2023-04-28T18:58:36.973Z,15.80
2023-04-28T19:01:04.764Z,16.10
2023-04-28T19:03:32.628Z,16.20
2023-04-28T19:06:00.458Z,15.80
2023-04-28T19:08:29.248Z,15.90
2023-04-28T19:10:59.915Z,16.00
2023-04-28T19:13:27.651Z,15.90
2023-04-28T19:15:56.138Z,16.20
2023-04-28T19:18:23.928Z,16.00
2023-04-28T19:20:52.184Z,15.90
2023-04-28T19:23:20.110Z,15.90
2023-04-28T19:25:48.229Z,16.20
2023-04-28T19:28:17.489Z,15.90
2023-04-28T19:30:45.303Z,15.90
2023-04-28T19:33:13.104Z,16.20
2023-04-28T19:35:40.935Z,15.80
2023-04-28T19:38:09.459Z,15.90
2023-04-28T19:40:37.842Z,16.00
2023-04-28T19:43:06.085Z,15.80
2023-04-28T19:45:36.007Z,15.90
2023-04-28T19:48:03.916Z,15.70
2023-04-28T19:50:32.134Z,15.90
2023-04-28T19:52:59.861Z,16.00
2023-04-28T19:55:27.772Z,15.70
2023-04-28T19:57:57.336Z,16.10
2023-04-28T20:00:25.446Z,15.70
2023-04-28T20:02:54.785Z,16.10
2023-04-28T20:05:22.990Z,16.10
2023-04-28T20:07:51.126Z,15.90
2023-04-28T20:10:19.086Z,15.90
2023-04-28T20:12:46.886Z,16.10
2023-04-28T20:15:16.503Z,16.10
2023-04-28T20:17:44.366Z,16.00
2023-04-28T20:20:13.752Z,16.00
2023-04-28T20:22:41.676Z,15.70
2023-04-28T20:25:10.783Z,15.50
2023-04-28T20:27:38.928Z,15.50
2023-04-28T20:30:08.246Z,15.80
2023-04-28T20:32:36.821Z,15.50
2023-04-28T20:35:05.656Z,15.50
2023-04-28T20:37:34.821Z,15.80
2023-04-28T20:40:03.090Z,15.50
2023-04-28T20:42:30.922Z,15.40
2023-04-28T20:44:59.422Z,15.60
2023-04-28T20:47:28.098Z,15.50
2023-04-28T20:49:55.825Z,15.80
2023-04-28T20:52:23.540Z,15.50
2023-04-28T20:54:54.022Z,15.60
2023-04-28T20:57:22.048Z,15.60
2023-04-28T20:59:49.892Z,15.40
2023-04-28T21:02:17.744Z,15.40
2023-04-28T21:04:45.471Z,15.30
2023-04-28T21:07:13.485Z,15.30
2023-04-28T21:09:42.041Z,15.30
2023-04-28T21:12:11.144Z,15.10
2023-04-28T21:14:38.945Z,15.30
2023-04-28T21:17:07.009Z,14.70
2023-04-28T21:19:34.747Z,15.10
2023-04-28T21:22:04.133Z,14.90
2023-04-28T21:24:31.833Z,15.00
2023-04-28T21:26:59.555Z,14.90
2023-04-28T21:29:28.797Z,14.90
2023-04-28T21:31:56.576Z,14.80
2023-04-28T21:34:26.058Z,14.90
2023-04-28T21:36:53.848Z,14.80
2023-04-28T21:39:21.623Z,14.70
2023-04-28T21:41:49.358Z,14.60
2023-04-28T21:44:17.108Z,14.40
2023-04-28T21:46:47.025Z,15.10
2023-04-28T21:49:14.709Z,15.00
2023-04-28T21:51:42.822Z,15.10
2023-04-28T21:54:10.786Z,15.10
2023-04-28T21:56:38.626Z,15.20
2023-04-28T21:59:06.341Z,15.20
2023-04-28T22:01:34.662Z,15.00
2023-04-28T22:04:03.988Z,14.60
2023-04-28T22:06:32.323Z,14.70
2023-04-28T22:09:01.251Z,14.80
2023-04-28T22:11:29.226Z,14.70
2023-04-28T22:13:56.925Z,14.70
2023-04-28T22:16:24.872Z,14.90
2023-04-28T22:18:52.679Z,14.60
2023-04-28T22:21:22.136Z,14.70
2023-04-28T22:23:49.944Z,14.40
2023-04-28T22:26:19.051Z,14.50
2023-04-28T22:28:46.725Z,14.70
2023-04-28T22:31:14.496Z,14.40
2023-04-28T22:33:42.236Z,14.50
2023-04-28T22:36:10.014Z,14.50
2023-04-28T22:38:39.108Z,14.50
2023-04-28T22:41:06.798Z,14.20
2023-04-28T22:43:34.692Z,14.10
2023-04-28T22:46:02.545Z,14.30
2023-04-28T22:48:30.340Z,14.30
2023-04-28T22:50:58.110Z,14.00
2023-04-28T22:53:25.960Z,14.10
2023-04-28T22:55:56.635Z,14.00
2023-04-28T22:58:24.484Z,13.90
2023-04-28T23:00:52.262Z,13.90
2023-04-28T23:03:21.242Z,14.00
2023-04-28T23:05:49.087Z,14.00
2023-04-28T23:08:16.834Z,14.00
2023-04-28T23:10:44.530Z,14.10
2023-04-28T23:13:13.540Z,13.90
2023-04-28T23:15:41.571Z,13.90
2023-04-28T23:18:09.474Z,13.80
2023-04-28T23:20:37.184Z,13.70
2023-04-28T23:23:05.272Z,13.60
2023-04-28T23:25:33.385Z,13.70
2023-04-28T23:28:01.157Z,13.90
2023-04-28T23:30:30.228Z,13.60
2023-04-28T23:32:58.012Z,13.70
2023-04-28T23:35:25.921Z,13.60
2023-04-28T23:37:53.636Z,13.80
2023-04-28T23:40:21.324Z,13.50
2023-04-28T23:42:49.027Z,13.40
2023-04-28T23:45:16.873Z,13.60
2023-04-28T23:47:45.985Z,13.40
2023-04-28T23:50:13.704Z,13.50
2023-04-28T23:52:41.435Z,13.60
2023-04-28T23:55:10.300Z,13.80
2023-04-28T23:57:38.767Z,13.80
